sensor_id;sensor_type;location;lat;lon;timestamp;P1;durP1;ratioP1;P2;durP2;ratioP2
12218;SDS011;6172;42.646;23.344;2023-03-01T00:02:20;3.87;;;2.57;;
12218;SDS011;6172;42.646;23.344;2023-03-01T00:04:47;2.40;;;2.20;;
12218;SDS011;6172;42.646;23.344;2023-03-01T00:07:14;3.40;;;2.67;;
12218;SDS011;6172;42.646;23.344;2023-03-01T00:09:42;3.57;;;2.60;;
12218;SDS011;6172;42.646;23.344;2023-03-01T00:12:10;3.40;;;2.47;;
12218;SDS011;6172;42.646;23.344;2023-03-01T00:14:38;4.23;;;2.83;;
12218;SDS011;6172;42.646;23.344;2023-03-01T00:17:08;3.47;;;2.77;;
12218;SDS011;6172;42.646;23.344;2023-03-01T00:19:35;3.97;;;3.17;;
12218;SDS011;6172;42.646;23.344;2023-03-01T00:22:02;3.10;;;2.80;;
12218;SDS011;6172;42.646;23.344;2023-03-01T00:24:29;3.97;;;3.00;;
12218;SDS011;6172;42.646;23.344;2023-03-01T00:26:56;2.87;;;2.40;;
12218;SDS011;6172;42.646;23.344;2023-03-01T00:29:23;3.47;;;2.70;;
12218;SDS011;6172;42.646;23.344;2023-03-01T00:31:51;3.10;;;2.60;;
12218;SDS011;6172;42.646;23.344;2023-03-01T00:34:19;4.00;;;2.40;;
12218;SDS011;6172;42.646;23.344;2023-03-01T00:36:46;3.43;;;2.37;;
12218;SDS011;6172;42.646;23.344;2023-03-01T00:39:14;2.87;;;2.23;;
12218;SDS011;6172;42.646;23.344;2023-03-01T00:41:41;3.90;;;2.57;;
12218;SDS011;6172;42.646;23.344;2023-03-01T00:44:09;2.23;;;2.03;;
12218;SDS011;6172;42.646;23.344;2023-03-01T00:46:36;2.77;;;2.30;;
12218;SDS011;6172;42.646;23.344;2023-03-01T00:49:04;2.53;;;2.00;;
12218;SDS011;6172;42.646;23.344;2023-03-01T00:51:33;3.20;;;2.10;;
12218;SDS011;6172;42.646;23.344;2023-03-01T00:54:00;2.80;;;2.20;;
12218;SDS011;6172;42.646;23.344;2023-03-01T00:56:28;2.80;;;2.20;;
12218;SDS011;6172;42.646;23.344;2023-03-01T00:58:55;2.47;;;2.03;;
12218;SDS011;6172;42.646;23.344;2023-03-01T01:01:24;3.67;;;2.47;;
12218;SDS011;6172;42.646;23.344;2023-03-01T01:03:53;2.77;;;1.90;;
12218;SDS011;6172;42.646;23.344;2023-03-01T01:06:22;3.27;;;1.70;;
12218;SDS011;6172;42.646;23.344;2023-03-01T01:08:53;1.77;;;1.57;;
12218;SDS011;6172;42.646;23.344;2023-03-01T01:11:21;1.60;;;1.47;;
12218;SDS011;6172;42.646;23.344;2023-03-01T01:13:49;2.07;;;1.87;;
12218;SDS011;6172;42.646;23.344;2023-03-01T01:16:17;1.60;;;1.40;;
12218;SDS011;6172;42.646;23.344;2023-03-01T01:18:45;2.50;;;1.90;;
12218;SDS011;6172;42.646;23.344;2023-03-01T01:21:13;1.47;;;1.37;;
12218;SDS011;6172;42.646;23.344;2023-03-01T01:23:41;1.77;;;1.60;;
12218;SDS011;6172;42.646;23.344;2023-03-01T01:26:11;2.53;;;1.70;;
12218;SDS011;6172;42.646;23.344;2023-03-01T01:28:39;1.80;;;1.47;;
12218;SDS011;6172;42.646;23.344;2023-03-01T01:31:07;1.63;;;1.33;;
12218;SDS011;6172;42.646;23.344;2023-03-01T01:33:34;1.57;;;1.30;;
12218;SDS011;6172;42.646;23.344;2023-03-01T01:36:02;1.43;;;1.10;;
12218;SDS011;6172;42.646;23.344;2023-03-01T01:38:30;2.03;;;1.53;;
12218;SDS011;6172;42.646;23.344;2023-03-01T01:40:58;1.27;;;1.17;;
12218;SDS011;6172;42.646;23.344;2023-03-01T01:43:28;1.77;;;1.20;;
12218;SDS011;6172;42.646;23.344;2023-03-01T01:45:57;1.53;;;1.13;;
12218;SDS011;6172;42.646;23.344;2023-03-01T01:48:32;1.10;;;1.00;;
12218;SDS011;6172;42.646;23.344;2023-03-01T01:51:07;1.47;;;1.13;;
12218;SDS011;6172;42.646;23.344;2023-03-01T01:53:37;1.10;;;1.00;;
12218;SDS011;6172;42.646;23.344;2023-03-01T01:56:06;1.30;;;1.20;;
12218;SDS011;6172;42.646;23.344;2023-03-01T01:58:41;1.97;;;1.20;;
12218;SDS011;6172;42.646;23.344;2023-03-01T02:01:12;1.30;;;1.20;;
12218;SDS011;6172;42.646;23.344;2023-03-01T02:03:40;1.70;;;1.20;;
12218;SDS011;6172;42.646;23.344;2023-03-01T02:06:15;1.20;;;1.10;;
12218;SDS011;6172;42.646;23.344;2023-03-01T02:08:48;1.17;;;1.07;;
12218;SDS011;6172;42.646;23.344;2023-03-01T02:11:18;1.03;;;1.03;;
12218;SDS011;6172;42.646;23.344;2023-03-01T02:13:52;1.10;;;1.00;;
12218;SDS011;6172;42.646;23.344;2023-03-01T02:16:22;0.93;;;0.80;;
12218;SDS011;6172;42.646;23.344;2023-03-01T02:18:49;0.80;;;0.80;;
12218;SDS011;6172;42.646;23.344;2023-03-01T02:21:37;0.90;;;0.90;;
12218;SDS011;6172;42.646;23.344;2023-03-01T02:24:10;2.23;;;1.03;;
12218;SDS011;6172;42.646;23.344;2023-03-01T02:26:49;1.23;;;1.20;;
12218;SDS011;6172;42.646;23.344;2023-03-01T02:29:25;1.10;;;1.10;;
12218;SDS011;6172;42.646;23.344;2023-03-01T02:31:54;1.10;;;1.00;;
12218;SDS011;6172;42.646;23.344;2023-03-01T02:34:24;1.80;;;1.47;;
12218;SDS011;6172;42.646;23.344;2023-03-01T02:36:53;1.20;;;1.10;;
12218;SDS011;6172;42.646;23.344;2023-03-01T02:39:25;0.90;;;0.90;;
12218;SDS011;6172;42.646;23.344;2023-03-01T02:41:58;1.30;;;1.20;;
12218;SDS011;6172;42.646;23.344;2023-03-01T02:44:29;1.50;;;1.40;;
12218;SDS011;6172;42.646;23.344;2023-03-01T02:47:00;1.43;;;1.20;;
12218;SDS011;6172;42.646;23.344;2023-03-01T02:49:30;2.00;;;1.50;;
12218;SDS011;6172;42.646;23.344;2023-03-01T02:52:16;1.90;;;1.67;;
12218;SDS011;6172;42.646;23.344;2023-03-01T02:55:08;1.63;;;1.33;;
12218;SDS011;6172;42.646;23.344;2023-03-01T02:57:39;1.53;;;1.40;;
12218;SDS011;6172;42.646;23.344;2023-03-01T03:00:13;1.70;;;1.60;;
12218;SDS011;6172;42.646;23.344;2023-03-01T03:02:44;1.83;;;1.67;;
12218;SDS011;6172;42.646;23.344;2023-03-01T03:05:13;2.50;;;2.30;;
12218;SDS011;6172;42.646;23.344;2023-03-01T03:07:43;2.50;;;2.00;;
12218;SDS011;6172;42.646;23.344;2023-03-01T03:10:13;4.97;;;2.63;;
12218;SDS011;6172;42.646;23.344;2023-03-01T03:12:42;2.87;;;2.37;;
12218;SDS011;6172;42.646;23.344;2023-03-01T03:15:12;3.17;;;2.63;;
12218;SDS011;6172;42.646;23.344;2023-03-01T03:17:39;2.87;;;2.57;;
12218;SDS011;6172;42.646;23.344;2023-03-01T03:20:10;3.83;;;3.00;;
12218;SDS011;6172;42.646;23.344;2023-03-01T03:22:44;3.40;;;2.90;;
12218;SDS011;6172;42.646;23.344;2023-03-01T03:25:13;4.10;;;3.60;;
12218;SDS011;6172;42.646;23.344;2023-03-01T03:27:41;5.63;;;3.87;;
12218;SDS011;6172;42.646;23.344;2023-03-01T03:30:13;4.77;;;3.90;;
12218;SDS011;6172;42.646;23.344;2023-03-01T03:32:43;4.40;;;3.70;;
12218;SDS011;6172;42.646;23.344;2023-03-01T03:35:17;7.10;;;3.80;;
12218;SDS011;6172;42.646;23.344;2023-03-01T03:37:45;5.07;;;3.50;;
12218;SDS011;6172;42.646;23.344;2023-03-01T03:40:32;5.07;;;3.40;;
12218;SDS011;6172;42.646;23.344;2023-03-01T03:43:03;5.27;;;3.87;;
12218;SDS011;6172;42.646;23.344;2023-03-01T03:45:47;4.70;;;3.33;;
12218;SDS011;6172;42.646;23.344;2023-03-01T03:48:15;3.80;;;3.13;;
12218;SDS011;6172;42.646;23.344;2023-03-01T03:50:47;5.03;;;3.47;;
12218;SDS011;6172;42.646;23.344;2023-03-01T03:53:33;3.63;;;2.63;;
12218;SDS011;6172;42.646;23.344;2023-03-01T03:56:04;4.03;;;2.93;;
12218;SDS011;6172;42.646;23.344;2023-03-01T03:58:32;5.70;;;3.13;;
12218;SDS011;6172;42.646;23.344;2023-03-01T04:01:05;3.07;;;2.30;;
12218;SDS011;6172;42.646;23.344;2023-03-01T04:03:32;3.53;;;2.50;;
12218;SDS011;6172;42.646;23.344;2023-03-01T04:06:02;3.70;;;2.40;;
12218;SDS011;6172;42.646;23.344;2023-03-01T04:08:30;4.00;;;2.97;;
12218;SDS011;6172;42.646;23.344;2023-03-01T04:11:00;4.80;;;2.43;;
12218;SDS011;6172;42.646;23.344;2023-03-01T04:13:49;2.97;;;2.40;;
12218;SDS011;6172;42.646;23.344;2023-03-01T04:16:19;1.70;;;1.50;;
12218;SDS011;6172;42.646;23.344;2023-03-01T04:18:46;3.17;;;1.57;;
12218;SDS011;6172;42.646;23.344;2023-03-01T04:21:13;2.40;;;1.70;;
12218;SDS011;6172;42.646;23.344;2023-03-01T04:23:41;1.50;;;1.40;;
12218;SDS011;6172;42.646;23.344;2023-03-01T04:26:08;3.50;;;1.57;;
12218;SDS011;6172;42.646;23.344;2023-03-01T04:28:36;3.57;;;1.80;;
12218;SDS011;6172;42.646;23.344;2023-03-01T04:31:07;2.37;;;1.80;;
12218;SDS011;6172;42.646;23.344;2023-03-01T04:33:44;2.43;;;1.97;;
12218;SDS011;6172;42.646;23.344;2023-03-01T04:36:14;3.03;;;2.10;;
12218;SDS011;6172;42.646;23.344;2023-03-01T04:38:44;4.27;;;2.00;;
12218;SDS011;6172;42.646;23.344;2023-03-01T04:41:14;3.53;;;2.00;;
12218;SDS011;6172;42.646;23.344;2023-03-01T04:43:42;2.73;;;2.03;;
12218;SDS011;6172;42.646;23.344;2023-03-01T04:46:11;2.97;;;2.20;;
12218;SDS011;6172;42.646;23.344;2023-03-01T04:48:40;3.93;;;2.20;;
12218;SDS011;6172;42.646;23.344;2023-03-01T04:51:12;3.50;;;2.53;;
12218;SDS011;6172;42.646;23.344;2023-03-01T04:53:39;5.60;;;2.40;;
12218;SDS011;6172;42.646;23.344;2023-03-01T04:56:07;3.07;;;2.47;;
12218;SDS011;6172;42.646;23.344;2023-03-01T04:58:37;3.13;;;2.20;;
12218;SDS011;6172;42.646;23.344;2023-03-01T05:01:08;3.30;;;2.40;;
12218;SDS011;6172;42.646;23.344;2023-03-01T05:03:40;3.87;;;2.87;;
12218;SDS011;6172;42.646;23.344;2023-03-01T05:06:10;3.37;;;2.30;;
12218;SDS011;6172;42.646;23.344;2023-03-01T05:08:37;3.87;;;2.83;;
12218;SDS011;6172;42.646;23.344;2023-03-01T05:11:09;3.97;;;2.57;;
12218;SDS011;6172;42.646;23.344;2023-03-01T05:13:37;3.10;;;2.07;;
12218;SDS011;6172;42.646;23.344;2023-03-01T05:16:07;3.47;;;2.40;;
12218;SDS011;6172;42.646;23.344;2023-03-01T05:18:37;3.57;;;2.80;;
12218;SDS011;6172;42.646;23.344;2023-03-01T05:21:05;4.87;;;2.10;;
12218;SDS011;6172;42.646;23.344;2023-03-01T05:23:36;4.70;;;2.80;;
12218;SDS011;6172;42.646;23.344;2023-03-01T05:26:04;3.43;;;2.40;;
12218;SDS011;6172;42.646;23.344;2023-03-01T05:28:34;1.90;;;1.80;;
12218;SDS011;6172;42.646;23.344;2023-03-01T05:31:03;3.50;;;1.97;;
12218;SDS011;6172;42.646;23.344;2023-03-01T05:33:36;3.17;;;2.07;;
12218;SDS011;6172;42.646;23.344;2023-03-01T05:36:04;2.00;;;1.80;;
12218;SDS011;6172;42.646;23.344;2023-03-01T05:38:36;1.60;;;1.40;;
12218;SDS011;6172;42.646;23.344;2023-03-01T05:41:03;1.47;;;1.37;;
12218;SDS011;6172;42.646;23.344;2023-03-01T05:43:31;1.87;;;1.70;;
12218;SDS011;6172;42.646;23.344;2023-03-01T05:45:59;1.40;;;1.30;;
12218;SDS011;6172;42.646;23.344;2023-03-01T05:48:26;4.20;;;2.57;;
12218;SDS011;6172;42.646;23.344;2023-03-01T05:50:53;2.23;;;1.80;;
12218;SDS011;6172;42.646;23.344;2023-03-01T05:53:20;1.60;;;1.50;;
12218;SDS011;6172;42.646;23.344;2023-03-01T05:55:53;2.53;;;1.60;;
12218;SDS011;6172;42.646;23.344;2023-03-01T05:58:20;1.57;;;1.40;;
12218;SDS011;6172;42.646;23.344;2023-03-01T06:00:48;1.40;;;1.30;;
12218;SDS011;6172;42.646;23.344;2023-03-01T06:03:17;2.03;;;1.43;;
12218;SDS011;6172;42.646;23.344;2023-03-01T06:05:55;1.97;;;1.17;;
12218;SDS011;6172;42.646;23.344;2023-03-01T06:08:24;2.57;;;1.57;;
12218;SDS011;6172;42.646;23.344;2023-03-01T06:10:54;2.27;;;1.30;;
12218;SDS011;6172;42.646;23.344;2023-03-01T06:13:22;1.57;;;1.23;;
12218;SDS011;6172;42.646;23.344;2023-03-01T06:15:50;1.63;;;1.47;;
12218;SDS011;6172;42.646;23.344;2023-03-01T06:18:18;2.50;;;1.60;;
12218;SDS011;6172;42.646;23.344;2023-03-01T06:20:45;3.50;;;1.80;;
12218;SDS011;6172;42.646;23.344;2023-03-01T06:23:19;2.50;;;1.30;;
12218;SDS011;6172;42.646;23.344;2023-03-01T06:25:46;3.53;;;1.30;;
12218;SDS011;6172;42.646;23.344;2023-03-01T06:28:15;2.33;;;1.27;;
12218;SDS011;6172;42.646;23.344;2023-03-01T06:30:42;1.50;;;1.40;;
12218;SDS011;6172;42.646;23.344;2023-03-01T06:33:09;3.10;;;1.50;;
12218;SDS011;6172;42.646;23.344;2023-03-01T06:35:37;1.67;;;1.27;;
12218;SDS011;6172;42.646;23.344;2023-03-01T06:38:03;2.73;;;1.60;;
12218;SDS011;6172;42.646;23.344;2023-03-01T06:40:31;1.83;;;1.70;;
12218;SDS011;6172;42.646;23.344;2023-03-01T06:43:00;2.60;;;1.30;;
12218;SDS011;6172;42.646;23.344;2023-03-01T06:45:29;2.80;;;1.70;;
12218;SDS011;6172;42.646;23.344;2023-03-01T06:48:02;2.80;;;1.40;;
12218;SDS011;6172;42.646;23.344;2023-03-01T06:50:30;2.53;;;1.70;;
12218;SDS011;6172;42.646;23.344;2023-03-01T06:52:57;1.70;;;1.60;;
12218;SDS011;6172;42.646;23.344;2023-03-01T06:55:24;3.70;;;1.70;;
12218;SDS011;6172;42.646;23.344;2023-03-01T06:57:53;3.63;;;1.70;;
12218;SDS011;6172;42.646;23.344;2023-03-01T07:00:21;2.43;;;1.50;;
12218;SDS011;6172;42.646;23.344;2023-03-01T07:02:50;1.60;;;1.43;;
12218;SDS011;6172;42.646;23.344;2023-03-01T07:05:17;2.23;;;1.67;;
12218;SDS011;6172;42.646;23.344;2023-03-01T07:07:44;2.30;;;1.57;;
12218;SDS011;6172;42.646;23.344;2023-03-01T07:10:12;2.03;;;1.40;;
12218;SDS011;6172;42.646;23.344;2023-03-01T07:12:39;3.27;;;1.50;;
12218;SDS011;6172;42.646;23.344;2023-03-01T07:15:08;4.40;;;1.60;;
12218;SDS011;6172;42.646;23.344;2023-03-01T07:17:37;2.20;;;1.83;;
12218;SDS011;6172;42.646;23.344;2023-03-01T07:20:07;4.93;;;1.33;;
12218;SDS011;6172;42.646;23.344;2023-03-01T07:22:35;1.20;;;1.10;;
12218;SDS011;6172;42.646;23.344;2023-03-01T07:25:02;2.87;;;1.70;;
12218;SDS011;6172;42.646;23.344;2023-03-01T07:27:30;4.20;;;1.70;;
12218;SDS011;6172;42.646;23.344;2023-03-01T07:29:57;5.20;;;1.67;;
12218;SDS011;6172;42.646;23.344;2023-03-01T07:32:26;5.07;;;1.60;;
12218;SDS011;6172;42.646;23.344;2023-03-01T07:34:53;4.10;;;1.60;;
12218;SDS011;6172;42.646;23.344;2023-03-01T07:37:27;3.03;;;1.40;;
12218;SDS011;6172;42.646;23.344;2023-03-01T07:39:54;1.97;;;1.30;;
12218;SDS011;6172;42.646;23.344;2023-03-01T07:42:22;2.93;;;1.70;;
12218;SDS011;6172;42.646;23.344;2023-03-01T07:44:48;2.53;;;1.10;;
12218;SDS011;6172;42.646;23.344;2023-03-01T07:47:15;0.80;;;0.70;;
12218;SDS011;6172;42.646;23.344;2023-03-01T07:49:42;1.97;;;1.30;;
12218;SDS011;6172;42.646;23.344;2023-03-01T07:52:09;1.70;;;1.10;;
12218;SDS011;6172;42.646;23.344;2023-03-01T07:54:38;1.97;;;0.87;;
12218;SDS011;6172;42.646;23.344;2023-03-01T07:57:10;1.27;;;1.13;;
12218;SDS011;6172;42.646;23.344;2023-03-01T07:59:37;1.93;;;0.80;;
12218;SDS011;6172;42.646;23.344;2023-03-01T08:02:04;1.97;;;1.50;;
12218;SDS011;6172;42.646;23.344;2023-03-01T08:04:35;2.50;;;1.53;;
12218;SDS011;6172;42.646;23.344;2023-03-01T08:07:04;2.17;;;1.30;;
12218;SDS011;6172;42.646;23.344;2023-03-01T08:09:34;1.43;;;1.13;;
12218;SDS011;6172;42.646;23.344;2023-03-01T08:12:04;0.67;;;0.50;;
12218;SDS011;6172;42.646;23.344;2023-03-01T08:14:32;2.13;;;0.90;;
12218;SDS011;6172;42.646;23.344;2023-03-01T08:16:59;2.17;;;0.90;;
12218;SDS011;6172;42.646;23.344;2023-03-01T08:19:29;1.17;;;0.87;;
12218;SDS011;6172;42.646;23.344;2023-03-01T08:21:58;1.17;;;0.87;;
12218;SDS011;6172;42.646;23.344;2023-03-01T08:24:26;1.10;;;1.00;;
12218;SDS011;6172;42.646;23.344;2023-03-01T08:26:53;2.20;;;0.97;;
12218;SDS011;6172;42.646;23.344;2023-03-01T08:29:22;2.73;;;1.10;;
12218;SDS011;6172;42.646;23.344;2023-03-01T08:31:50;1.93;;;1.63;;
12218;SDS011;6172;42.646;23.344;2023-03-01T08:34:18;2.17;;;1.60;;
12218;SDS011;6172;42.646;23.344;2023-03-01T08:36:46;2.67;;;1.13;;
12218;SDS011;6172;42.646;23.344;2023-03-01T08:39:23;2.80;;;1.53;;
12218;SDS011;6172;42.646;23.344;2023-03-01T08:41:50;1.97;;;1.13;;
12218;SDS011;6172;42.646;23.344;2023-03-01T08:44:17;3.63;;;1.60;;
12218;SDS011;6172;42.646;23.344;2023-03-01T08:46:48;0.80;;;0.80;;
12218;SDS011;6172;42.646;23.344;2023-03-01T08:49:20;3.90;;;0.90;;
12218;SDS011;6172;42.646;23.344;2023-03-01T08:51:48;1.70;;;1.10;;
12218;SDS011;6172;42.646;23.344;2023-03-01T08:54:17;1.20;;;1.10;;
12218;SDS011;6172;42.646;23.344;2023-03-01T08:56:46;2.10;;;1.10;;
12218;SDS011;6172;42.646;23.344;2023-03-01T08:59:14;0.87;;;0.80;;
12218;SDS011;6172;42.646;23.344;2023-03-01T09:01:47;3.13;;;1.30;;
12218;SDS011;6172;42.646;23.344;2023-03-01T09:04:15;3.53;;;1.53;;
12218;SDS011;6172;42.646;23.344;2023-03-01T09:06:43;2.43;;;1.33;;
12218;SDS011;6172;42.646;23.344;2023-03-01T09:09:12;4.13;;;1.80;;
12218;SDS011;6172;42.646;23.344;2023-03-01T09:11:41;3.40;;;2.60;;
12218;SDS011;6172;42.646;23.344;2023-03-01T09:14:08;4.73;;;2.47;;
12218;SDS011;6172;42.646;23.344;2023-03-01T09:16:42;2.40;;;1.87;;
12218;SDS011;6172;42.646;23.344;2023-03-01T09:19:11;2.10;;;1.50;;
12218;SDS011;6172;42.646;23.344;2023-03-01T09:21:57;3.57;;;1.53;;
12218;SDS011;6172;42.646;23.344;2023-03-01T09:24:24;2.27;;;1.20;;
12218;SDS011;6172;42.646;23.344;2023-03-01T09:26:53;1.40;;;1.17;;
12218;SDS011;6172;42.646;23.344;2023-03-01T09:29:20;2.97;;;1.30;;
12218;SDS011;6172;42.646;23.344;2023-03-01T09:31:47;3.87;;;1.47;;
12218;SDS011;6172;42.646;23.344;2023-03-01T09:34:16;1.43;;;1.10;;
12218;SDS011;6172;42.646;23.344;2023-03-01T09:36:48;2.10;;;1.10;;
12218;SDS011;6172;42.646;23.344;2023-03-01T09:39:15;2.00;;;1.40;;
12218;SDS011;6172;42.646;23.344;2023-03-01T09:41:46;3.33;;;1.20;;
12218;SDS011;6172;42.646;23.344;2023-03-01T09:44:20;2.33;;;1.17;;
12218;SDS011;6172;42.646;23.344;2023-03-01T09:46:52;2.77;;;1.20;;
12218;SDS011;6172;42.646;23.344;2023-03-01T09:49:23;3.63;;;1.60;;
12218;SDS011;6172;42.646;23.344;2023-03-01T09:51:58;1.13;;;0.93;;
12218;SDS011;6172;42.646;23.344;2023-03-01T09:54:32;3.00;;;1.23;;
12218;SDS011;6172;42.646;23.344;2023-03-01T09:57:13;6.23;;;1.13;;
12218;SDS011;6172;42.646;23.344;2023-03-01T09:59:51;1.90;;;0.93;;
12218;SDS011;6172;42.646;23.344;2023-03-01T10:02:30;1.83;;;0.90;;
12218;SDS011;6172;42.646;23.344;2023-03-01T10:05:13;3.00;;;1.07;;
12218;SDS011;6172;42.646;23.344;2023-03-01T10:07:53;2.97;;;1.30;;
12218;SDS011;6172;42.646;23.344;2023-03-01T10:10:31;2.73;;;1.13;;
12218;SDS011;6172;42.646;23.344;2023-03-01T10:13:01;0.90;;;0.70;;
12218;SDS011;6172;42.646;23.344;2023-03-01T10:15:34;4.23;;;0.90;;
12218;SDS011;6172;42.646;23.344;2023-03-01T10:18:06;1.37;;;1.00;;
12218;SDS011;6172;42.646;23.344;2023-03-01T10:20:43;1.90;;;1.40;;
12218;SDS011;6172;42.646;23.344;2023-03-01T10:23:17;2.47;;;1.17;;
12218;SDS011;6172;42.646;23.344;2023-03-01T10:25:47;2.60;;;1.67;;
12218;SDS011;6172;42.646;23.344;2023-03-01T10:28:25;2.77;;;1.90;;
12218;SDS011;6172;42.646;23.344;2023-03-01T10:30:56;3.70;;;2.23;;
12218;SDS011;6172;42.646;23.344;2023-03-01T10:33:25;1.00;;;0.80;;
12218;SDS011;6172;42.646;23.344;2023-03-01T10:35:57;1.67;;;1.10;;
12218;SDS011;6172;42.646;23.344;2023-03-01T10:38:24;2.43;;;1.17;;
12218;SDS011;6172;42.646;23.344;2023-03-01T10:40:53;3.93;;;1.60;;
12218;SDS011;6172;42.646;23.344;2023-03-01T10:43:23;4.10;;;1.53;;
12218;SDS011;6172;42.646;23.344;2023-03-01T10:45:50;1.87;;;0.73;;
12218;SDS011;6172;42.646;23.344;2023-03-01T10:48:19;2.93;;;1.43;;
12218;SDS011;6172;42.646;23.344;2023-03-01T10:50:50;0.77;;;0.73;;
12218;SDS011;6172;42.646;23.344;2023-03-01T10:53:33;2.10;;;1.27;;
12218;SDS011;6172;42.646;23.344;2023-03-01T10:56:03;2.30;;;0.67;;
12218;SDS011;6172;42.646;23.344;2023-03-01T10:58:32;2.67;;;1.57;;
12218;SDS011;6172;42.646;23.344;2023-03-01T11:01:01;2.63;;;1.13;;
12218;SDS011;6172;42.646;23.344;2023-03-01T11:03:30;2.20;;;1.07;;
12218;SDS011;6172;42.646;23.344;2023-03-01T11:05:59;1.87;;;1.40;;
12218;SDS011;6172;42.646;23.344;2023-03-01T11:08:45;1.17;;;1.07;;
12218;SDS011;6172;42.646;23.344;2023-03-01T11:11:20;1.27;;;1.17;;
12218;SDS011;6172;42.646;23.344;2023-03-01T11:13:53;2.97;;;1.50;;
12218;SDS011;6172;42.646;23.344;2023-03-01T11:16:26;2.00;;;1.10;;
12218;SDS011;6172;42.646;23.344;2023-03-01T11:18:57;1.97;;;1.17;;
12218;SDS011;6172;42.646;23.344;2023-03-01T11:21:28;3.67;;;1.53;;
12218;SDS011;6172;42.646;23.344;2023-03-01T11:24:00;2.70;;;1.63;;
12218;SDS011;6172;42.646;23.344;2023-03-01T11:26:28;6.57;;;1.77;;
12218;SDS011;6172;42.646;23.344;2023-03-01T11:28:58;2.20;;;1.50;;
12218;SDS011;6172;42.646;23.344;2023-03-01T11:31:32;2.93;;;1.20;;
12218;SDS011;6172;42.646;23.344;2023-03-01T11:34:03;1.93;;;1.27;;
12218;SDS011;6172;42.646;23.344;2023-03-01T11:36:40;4.37;;;2.00;;
12218;SDS011;6172;42.646;23.344;2023-03-01T11:39:15;4.87;;;1.80;;
12218;SDS011;6172;42.646;23.344;2023-03-01T11:42:02;4.30;;;2.43;;
12218;SDS011;6172;42.646;23.344;2023-03-01T11:44:38;3.90;;;1.97;;
12218;SDS011;6172;42.646;23.344;2023-03-01T11:47:13;3.77;;;2.20;;
12218;SDS011;6172;42.646;23.344;2023-03-01T11:50:00;3.50;;;1.70;;
12218;SDS011;6172;42.646;23.344;2023-03-01T11:52:42;2.00;;;1.80;;
12218;SDS011;6172;42.646;23.344;2023-03-01T11:55:23;2.47;;;1.87;;
12218;SDS011;6172;42.646;23.344;2023-03-01T11:58:03;2.23;;;1.83;;
12218;SDS011;6172;42.646;23.344;2023-03-01T12:00:49;2.20;;;1.70;;
12218;SDS011;6172;42.646;23.344;2023-03-01T12:03:33;2.13;;;1.93;;
12218;SDS011;6172;42.646;23.344;2023-03-01T12:06:14;1.67;;;1.57;;
12218;SDS011;6172;42.646;23.344;2023-03-01T12:09:02;4.67;;;2.13;;
12218;SDS011;6172;42.646;23.344;2023-03-01T12:11:46;4.87;;;2.10;;
12218;SDS011;6172;42.646;23.344;2023-03-01T12:14:37;3.10;;;1.87;;
12218;SDS011;6172;42.646;23.344;2023-03-01T12:17:36;4.53;;;2.47;;
12218;SDS011;6172;42.646;23.344;2023-03-01T12:20:22;2.53;;;2.13;;
12218;SDS011;6172;42.646;23.344;2023-03-01T12:23:02;4.60;;;2.53;;
12218;SDS011;6172;42.646;23.344;2023-03-01T12:25:48;2.80;;;2.47;;
12218;SDS011;6172;42.646;23.344;2023-03-01T12:31:41;2.93;;;2.30;;
12218;SDS011;6172;42.646;23.344;2023-03-01T12:34:25;3.03;;;2.40;;
12218;SDS011;6172;42.646;23.344;2023-03-01T12:37:17;3.20;;;1.60;;
12218;SDS011;6172;42.646;23.344;2023-03-01T12:39:54;2.13;;;1.40;;
12218;SDS011;6172;42.646;23.344;2023-03-01T12:42:31;2.67;;;1.23;;
12218;SDS011;6172;42.646;23.344;2023-03-01T12:48:26;3.03;;;1.63;;
12218;SDS011;6172;42.646;23.344;2023-03-01T12:51:07;2.23;;;1.40;;
12218;SDS011;6172;42.646;23.344;2023-03-01T12:53:39;5.83;;;1.60;;
12218;SDS011;6172;42.646;23.344;2023-03-01T12:56:09;1.87;;;1.50;;
12218;SDS011;6172;42.646;23.344;2023-03-01T12:58:41;2.33;;;1.40;;
12218;SDS011;6172;42.646;23.344;2023-03-01T13:01:26;2.00;;;1.63;;
12218;SDS011;6172;42.646;23.344;2023-03-01T13:04:06;5.10;;;1.93;;
12218;SDS011;6172;42.646;23.344;2023-03-01T13:06:42;1.73;;;1.60;;
12218;SDS011;6172;42.646;23.344;2023-03-01T13:09:19;1.90;;;1.23;;
12218;SDS011;6172;42.646;23.344;2023-03-01T13:11:56;2.10;;;1.30;;
12218;SDS011;6172;42.646;23.344;2023-03-01T13:20:12;1.20;;;1.10;;
12218;SDS011;6172;42.646;23.344;2023-03-01T13:22:41;2.73;;;1.60;;
12218;SDS011;6172;42.646;23.344;2023-03-01T13:25:12;2.17;;;1.97;;
12218;SDS011;6172;42.646;23.344;2023-03-01T13:27:43;3.43;;;1.93;;
12218;SDS011;6172;42.646;23.344;2023-03-01T13:39:30;4.27;;;2.03;;
12218;SDS011;6172;42.646;23.344;2023-03-01T13:42:33;3.27;;;1.90;;
12218;SDS011;6172;42.646;23.344;2023-03-01T13:44:58;2.77;;;2.27;;
12218;SDS011;6172;42.646;23.344;2023-03-01T13:47:25;2.33;;;1.70;;
12218;SDS011;6172;42.646;23.344;2023-03-01T13:49:57;3.07;;;1.97;;
12218;SDS011;6172;42.646;23.344;2023-03-01T13:52:37;4.37;;;2.50;;
12218;SDS011;6172;42.646;23.344;2023-03-01T13:55:14;2.90;;;2.60;;
12218;SDS011;6172;42.646;23.344;2023-03-01T13:57:45;2.10;;;1.87;;
12218;SDS011;6172;42.646;23.344;2023-03-01T14:00:25;3.43;;;1.90;;
12218;SDS011;6172;42.646;23.344;2023-03-01T14:03:01;2.17;;;1.77;;
12218;SDS011;6172;42.646;23.344;2023-03-01T14:05:58;5.57;;;2.23;;
12218;SDS011;6172;42.646;23.344;2023-03-01T14:08:33;1.70;;;1.60;;
12218;SDS011;6172;42.646;23.344;2023-03-01T14:11:22;2.23;;;1.60;;
12218;SDS011;6172;42.646;23.344;2023-03-01T14:14:14;4.50;;;1.80;;
12218;SDS011;6172;42.646;23.344;2023-03-01T14:16:58;3.43;;;1.50;;
12218;SDS011;6172;42.646;23.344;2023-03-01T14:19:32;1.73;;;1.63;;
12218;SDS011;6172;42.646;23.344;2023-03-01T14:22:10;4.57;;;2.27;;
12218;SDS011;6172;42.646;23.344;2023-03-01T14:24:46;2.80;;;2.30;;
12218;SDS011;6172;42.646;23.344;2023-03-01T14:27:15;2.83;;;1.87;;
12218;SDS011;6172;42.646;23.344;2023-03-01T14:29:43;3.17;;;1.90;;
12218;SDS011;6172;42.646;23.344;2023-03-01T14:32:20;2.73;;;1.97;;
12218;SDS011;6172;42.646;23.344;2023-03-01T14:34:49;2.70;;;1.73;;
12218;SDS011;6172;42.646;23.344;2023-03-01T14:37:20;5.17;;;2.40;;
12218;SDS011;6172;42.646;23.344;2023-03-01T14:39:48;2.07;;;1.67;;
12218;SDS011;6172;42.646;23.344;2023-03-01T14:42:15;2.80;;;1.83;;
12218;SDS011;6172;42.646;23.344;2023-03-01T14:44:46;5.63;;;1.80;;
12218;SDS011;6172;42.646;23.344;2023-03-01T14:47:16;2.60;;;1.70;;
12218;SDS011;6172;42.646;23.344;2023-03-01T14:49:50;1.90;;;1.60;;
12218;SDS011;6172;42.646;23.344;2023-03-01T14:52:25;4.57;;;2.17;;
12218;SDS011;6172;42.646;23.344;2023-03-01T14:54:59;3.00;;;2.17;;
12218;SDS011;6172;42.646;23.344;2023-03-01T14:57:30;2.50;;;1.60;;
12218;SDS011;6172;42.646;23.344;2023-03-01T14:59:58;2.90;;;1.80;;
12218;SDS011;6172;42.646;23.344;2023-03-01T15:02:29;3.00;;;2.50;;
12218;SDS011;6172;42.646;23.344;2023-03-01T15:04:58;5.40;;;2.10;;
12218;SDS011;6172;42.646;23.344;2023-03-01T15:07:41;3.20;;;1.90;;
12218;SDS011;6172;42.646;23.344;2023-03-01T15:10:16;11.63;;;3.17;;
12218;SDS011;6172;42.646;23.344;2023-03-01T15:12:46;7.03;;;2.63;;
12218;SDS011;6172;42.646;23.344;2023-03-01T15:18:05;2.20;;;1.80;;
12218;SDS011;6172;42.646;23.344;2023-03-01T15:20:40;3.50;;;2.43;;
12218;SDS011;6172;42.646;23.344;2023-03-01T15:23:16;2.57;;;1.93;;
12218;SDS011;6172;42.646;23.344;2023-03-01T15:25:47;3.90;;;2.10;;
12218;SDS011;6172;42.646;23.344;2023-03-01T15:28:22;3.90;;;1.70;;
12218;SDS011;6172;42.646;23.344;2023-03-01T15:30:52;6.90;;;2.60;;
12218;SDS011;6172;42.646;23.344;2023-03-01T15:33:30;2.80;;;2.23;;
12218;SDS011;6172;42.646;23.344;2023-03-01T15:36:00;8.50;;;2.80;;
12218;SDS011;6172;42.646;23.344;2023-03-01T15:38:31;4.27;;;2.37;;
12218;SDS011;6172;42.646;23.344;2023-03-01T15:41:03;4.37;;;2.40;;